createdAt,value
2022-10-03T00:00:17.336Z,1.60
2022-10-03T00:02:51.834Z,1.95
2022-10-03T00:05:47.463Z,1.67
2022-10-03T00:08:52.435Z,1.42
2022-10-03T00:11:29.157Z,1.98
2022-10-03T00:14:29.847Z,1.90
2022-10-03T00:17:13.276Z,1.90
2022-10-03T00:20:06.104Z,1.90
2022-10-03T00:22:57.277Z,2.25
2022-10-03T00:25:49.290Z,2.17
2022-10-03T00:28:29.273Z,2.42
2022-10-03T00:31:11.313Z,2.45
2022-10-03T00:34:19.816Z,1.88
2022-10-03T00:39:31.728Z,2.28
2022-10-03T00:42:35.794Z,2.50
2022-10-03T00:45:18.910Z,2.45
2022-10-03T00:48:04.394Z,2.58
2022-10-03T00:51:13.602Z,2.67
2022-10-03T00:54:09.646Z,2.53
2022-10-03T00:56:55.653Z,2.63
2022-10-03T00:59:52.611Z,2.95
2022-10-03T01:02:52.600Z,2.60
2022-10-03T01:05:57.715Z,2.90
2022-10-03T01:08:50.190Z,2.80
2022-10-03T01:11:32.881Z,2.72
2022-10-03T01:14:20.029Z,2.80
2022-10-03T01:16:56.710Z,2.33
2022-10-03T01:19:43.471Z,2.55
2022-10-03T01:22:39.822Z,2.58
2022-10-03T01:25:38.117Z,2.05
2022-10-03T01:29:05.812Z,2.47
2022-10-03T01:31:43.127Z,2.53
2022-10-03T01:34:24.495Z,2.42
2022-10-03T01:37:17.858Z,2.20
2022-10-03T01:39:48.427Z,2.58
2022-10-03T01:42:39.089Z,2.30
2022-10-03T01:45:15.763Z,2.45
2022-10-03T01:47:51.889Z,2.53
2022-10-03T01:50:38.946Z,2.47
2022-10-03T01:53:15.192Z,2.53
2022-10-03T01:56:08.884Z,3.10
2022-10-03T01:58:58.666Z,2.30
2022-10-03T02:01:29.305Z,2.78
2022-10-03T02:04:15.773Z,2.40
2022-10-03T02:07:02.701Z,2.22
2022-10-03T02:09:48.604Z,2.25
2022-10-03T02:12:23.060Z,2.38
2022-10-03T02:15:06.183Z,2.35
2022-10-03T02:17:36.809Z,2.20
2022-10-03T02:20:34.606Z,2.38
2022-10-03T02:23:02.658Z,2.40
2022-10-03T02:25:36.476Z,2.65
2022-10-03T02:28:10.376Z,2.53
2022-10-03T02:31:06.562Z,2.33
2022-10-03T02:34:16.304Z,2.30
2022-10-03T02:37:05.663Z,2.10
2022-10-03T02:40:07.274Z,2.30
2022-10-03T02:43:12.183Z,1.98
2022-10-03T02:45:59.399Z,1.80
2022-10-03T02:48:49.421Z,1.88
2022-10-03T02:51:50.813Z,1.55
2022-10-03T02:54:41.727Z,1.73
2022-10-03T02:57:35.101Z,1.42
2022-10-03T03:00:21.098Z,1.42
2022-10-03T03:02:59.017Z,1.10
2022-10-03T03:06:00.232Z,1.45
2022-10-03T03:08:46.087Z,1.30
2022-10-03T03:11:51.465Z,1.02
2022-10-03T03:14:25.057Z,1.02
2022-10-03T03:17:19.061Z,1.20
2022-10-03T03:20:11.394Z,1.20
2022-10-03T03:23:07.358Z,0.93
2022-10-03T03:26:10.457Z,1.00
2022-10-03T03:29:02.994Z,0.70
2022-10-03T03:32:08.384Z,1.13
2022-10-03T03:34:49.505Z,0.98
2022-10-03T03:37:35.338Z,0.77
2022-10-03T03:40:03.059Z,1.23
2022-10-03T03:42:54.439Z,1.10
2022-10-03T03:45:41.256Z,1.25
2022-10-03T03:48:25.575Z,1.23
2022-10-03T03:51:44.145Z,1.00
2022-10-03T03:54:16.371Z,1.05
2022-10-03T03:57:33.126Z,1.10
2022-10-03T04:00:08.137Z,1.23
2022-10-03T04:03:13.535Z,0.95
2022-10-03T04:05:41.357Z,0.80
2022-10-03T04:08:12.279Z,1.05
2022-10-03T04:11:06.955Z,1.00
2022-10-03T04:13:59.604Z,0.85
2022-10-03T04:17:43.069Z,1.00
2022-10-03T04:20:56.296Z,0.73
2022-10-03T04:23:29.954Z,0.85
2022-10-03T04:26:34.407Z,0.90
2022-10-03T04:29:12.044Z,1.05
2022-10-03T04:31:55.123Z,0.90
2022-10-03T04:34:51.888Z,0.90
2022-10-03T04:37:41.010Z,1.70
2022-10-03T04:40:50.186Z,2.17
2022-10-03T04:43:43.754Z,3.65
2022-10-03T04:46:27.951Z,2.70
2022-10-03T04:49:04.028Z,2.80
2022-10-03T04:52:22.213Z,2.70
2022-10-03T04:55:06.764Z,2.92
2022-10-03T04:57:52.539Z,2.60
2022-10-03T05:00:28.506Z,2.35
2022-10-03T05:03:13.412Z,2.23
2022-10-03T05:05:51.591Z,3.25
2022-10-03T05:08:37.238Z,3.10
2022-10-03T05:11:19.178Z,2.20
2022-10-03T05:14:11.418Z,1.60
2022-10-03T05:16:46.951Z,1.60
2022-10-03T05:19:36.426Z,1.50
2022-10-03T05:22:30.747Z,2.13
2022-10-03T05:25:13.912Z,3.20
2022-10-03T05:27:49.953Z,4.43
2022-10-03T05:30:34.953Z,2.90
2022-10-03T05:33:23.044Z,2.90
2022-10-03T05:36:08.889Z,3.67
2022-10-03T05:39:01.019Z,7.22
2022-10-03T05:41:35.690Z,8.50
2022-10-03T05:44:18.192Z,7.00
2022-10-03T05:46:59.690Z,4.60
2022-10-03T05:49:36.209Z,2.85
2022-10-03T05:52:12.823Z,2.30
2022-10-03T05:54:52.628Z,2.00
2022-10-03T05:57:59.119Z,1.90
2022-10-03T06:00:40.181Z,2.63
2022-10-03T06:03:47.428Z,4.00
2022-10-03T06:06:50.875Z,5.55
2022-10-03T06:09:39.832Z,5.97
2022-10-03T06:12:14.398Z,4.93
2022-10-03T06:15:03.052Z,4.60
2022-10-03T06:17:58.200Z,3.38
2022-10-03T06:21:02.973Z,3.05
2022-10-03T06:23:59.432Z,2.60
2022-10-03T06:26:55.103Z,2.60
2022-10-03T06:30:20.722Z,4.10
2022-10-03T06:33:09.765Z,4.53
2022-10-03T06:36:19.971Z,4.45
2022-10-03T06:39:13.718Z,4.60
2022-10-03T06:42:12.491Z,5.15
2022-10-03T06:45:10.096Z,4.55
2022-10-03T06:48:06.013Z,6.53
2022-10-03T06:51:00.132Z,8.38
2022-10-03T06:53:59.361Z,7.65
2022-10-03T06:56:31.959Z,6.30
2022-10-03T06:59:05.708Z,5.50
2022-10-03T07:01:58.206Z,5.00
2022-10-03T07:04:52.078Z,4.85
2022-10-03T07:07:52.561Z,4.22
2022-10-03T07:10:36.207Z,3.63
2022-10-03T07:13:27.004Z,2.78
2022-10-03T07:16:26.144Z,1.30
2022-10-03T07:19:14.219Z,1.83
2022-10-03T07:24:40.592Z,1.65
2022-10-03T07:27:17.896Z,1.38
2022-10-03T07:29:58.094Z,1.58
2022-10-03T07:32:28.962Z,1.42
2022-10-03T07:35:21.381Z,2.13
2022-10-03T07:38:42.113Z,1.90
2022-10-03T07:41:31.794Z,1.52
2022-10-03T07:44:28.598Z,1.48
2022-10-03T07:47:35.998Z,2.15
2022-10-03T07:50:41.209Z,1.75
2022-10-03T07:53:11.939Z,2.22
2022-10-03T07:56:17.828Z,2.28
2022-10-03T07:58:48.529Z,1.80
2022-10-03T08:01:25.215Z,2.22
2022-10-03T08:03:59.075Z,2.20
2022-10-03T08:06:44.658Z,1.85
2022-10-03T08:09:37.014Z,2.42
2022-10-03T08:12:34.341Z,2.05
2022-10-03T08:15:30.057Z,2.00
2022-10-03T08:18:07.014Z,1.52
2022-10-03T08:20:52.929Z,1.98
2022-10-03T08:23:40.084Z,2.20
2022-10-03T08:26:27.985Z,1.63
2022-10-03T08:29:13.847Z,2.55
2022-10-03T08:32:32.486Z,1.60
2022-10-03T08:35:25.454Z,2.17
2022-10-03T08:38:28.186Z,1.88
2022-10-03T08:41:28.303Z,2.20
2022-10-03T08:44:33.428Z,2.33
2022-10-03T08:47:21.738Z,2.35
2022-10-03T08:49:52.515Z,2.30
2022-10-03T08:52:32.164Z,1.80
2022-10-03T08:55:31.861Z,1.70
2022-10-03T08:58:17.481Z,2.50
2022-10-03T09:01:19.219Z,3.38
2022-10-03T09:03:52.979Z,2.10
2022-10-03T09:10:07.736Z,2.30
2022-10-03T09:15:48.003Z,2.55
2022-10-03T09:18:33.831Z,2.40
2022-10-03T09:22:00.625Z,3.10
2022-10-03T09:24:36.942Z,2.25
2022-10-03T09:27:14.914Z,2.25
2022-10-03T09:29:42.609Z,3.00
2022-10-03T09:32:47.540Z,3.05
2022-10-03T09:35:49.847Z,3.15
2022-10-03T09:38:41.831Z,2.30
2022-10-03T09:41:24.770Z,2.20
2022-10-03T09:43:57.225Z,2.53
2022-10-03T09:47:28.346Z,2.60
2022-10-03T09:50:01.991Z,2.80
2022-10-03T09:52:54.662Z,2.80
2022-10-03T09:55:23.184Z,2.50
2022-10-03T09:58:19.634Z,2.25
2022-10-03T10:01:12.322Z,2.78
2022-10-03T10:03:53.155Z,3.03
2022-10-03T10:06:49.080Z,2.42
2022-10-03T10:09:16.597Z,2.50
2022-10-03T10:12:15.718Z,2.50
2022-10-03T10:14:54.621Z,2.53
2022-10-03T10:17:34.297Z,2.83
2022-10-03T10:20:04.949Z,3.50
2022-10-03T10:23:05.444Z,3.13
2022-10-03T10:25:42.558Z,4.53
2022-10-03T10:28:37.888Z,5.90
2022-10-03T10:31:54.914Z,6.03
2022-10-03T10:34:44.174Z,7.57
2022-10-03T10:37:33.484Z,6.40
2022-10-03T10:40:27.588Z,6.18
2022-10-03T10:43:15.601Z,5.97
2022-10-03T10:46:08.095Z,3.90
2022-10-03T10:49:02.799Z,3.50
2022-10-03T10:51:49.997Z,3.40
2022-10-03T10:54:42.080Z,4.65
2022-10-03T10:57:24.649Z,4.82
2022-10-03T11:00:06.407Z,4.57
2022-10-03T11:02:43.863Z,4.75
2022-10-03T11:05:30.229Z,5.13
2022-10-03T11:08:25.467Z,4.70
2022-10-03T11:11:54.767Z,3.60
2022-10-03T11:14:22.286Z,4.13
2022-10-03T11:16:55.677Z,4.18
2022-10-03T11:19:51.362Z,3.20
2022-10-03T11:22:24.960Z,2.40
2022-10-03T11:25:41.155Z,2.42
2022-10-03T11:28:39.855Z,2.50
2022-10-03T11:31:33.222Z,2.30
2022-10-03T11:34:28.961Z,2.60
2022-10-03T11:37:31.281Z,2.63
2022-10-03T11:40:12.800Z,2.53
2022-10-03T11:42:56.165Z,2.45
2022-10-03T11:45:35.299Z,3.10
2022-10-03T11:48:19.692Z,2.70
2022-10-03T11:50:59.478Z,3.10
2022-10-03T11:53:43.704Z,4.15
2022-10-03T11:56:35.351Z,4.90
2022-10-03T11:59:20.457Z,6.03
2022-10-03T12:02:08.291Z,5.35
2022-10-03T12:05:00.202Z,7.10
2022-10-03T12:08:05.118Z,6.43
2022-10-03T12:11:14.130Z,4.63
2022-10-03T12:13:57.392Z,3.50
2022-10-03T12:16:32.085Z,3.28
2022-10-03T12:19:15.980Z,2.90
2022-10-03T12:22:11.856Z,3.40
2022-10-03T12:24:45.341Z,5.55
2022-10-03T12:27:30.287Z,5.50
2022-10-03T12:30:03.648Z,7.15
2022-10-03T12:32:48.973Z,6.85
2022-10-03T12:35:29.887Z,7.35
2022-10-03T12:38:48.839Z,4.90
2022-10-03T12:41:45.824Z,6.20
2022-10-03T12:44:29.823Z,5.72
2022-10-03T12:47:54.449Z,5.18
2022-10-03T12:51:00.805Z,3.97
2022-10-03T12:53:41.823Z,3.58
2022-10-03T12:56:15.378Z,3.00
2022-10-03T12:59:14.850Z,2.53
2022-10-03T13:01:54.709Z,2.38
2022-10-03T13:05:19.128Z,2.80
2022-10-03T13:07:56.755Z,2.60
2022-10-03T13:10:42.883Z,2.28
2022-10-03T13:13:32.450Z,2.33
2022-10-03T13:16:04.548Z,2.38
2022-10-03T13:18:44.396Z,2.08
2022-10-03T13:21:45.914Z,2.40
2022-10-03T13:24:32.582Z,2.70
2022-10-03T13:27:14.477Z,2.70
2022-10-03T13:29:50.074Z,2.38
2022-10-03T13:32:44.282Z,2.40
2022-10-03T13:35:54.925Z,1.77
2022-10-03T13:39:00.092Z,1.70
2022-10-03T13:41:35.017Z,1.50
2022-10-03T13:44:17.944Z,1.75
2022-10-03T13:46:57.800Z,1.27
2022-10-03T13:49:37.376Z,1.08
2022-10-03T13:52:18.849Z,1.30
2022-10-03T13:55:11.437Z,1.38
2022-10-03T13:57:57.811Z,2.80
2022-10-03T14:00:34.130Z,3.33
2022-10-03T14:03:01.908Z,3.45
2022-10-03T14:05:51.018Z,3.42
2022-10-03T14:08:28.311Z,2.70
2022-10-03T14:11:04.444Z,1.60
2022-10-03T14:13:44.187Z,1.83
2022-10-03T14:16:11.862Z,1.15
2022-10-03T14:19:07.819Z,1.42
2022-10-03T14:22:21.455Z,2.30
2022-10-03T14:25:11.880Z,1.92
2022-10-03T14:27:48.702Z,1.10
2022-10-03T14:30:23.816Z,1.52
2022-10-03T14:33:10.922Z,1.40
2022-10-03T14:36:03.714Z,1.50
2022-10-03T14:38:58.181Z,1.77
2022-10-03T14:42:00.115Z,1.10
2022-10-03T14:44:44.767Z,1.50
2022-10-03T14:47:15.954Z,1.45
2022-10-03T14:49:59.161Z,1.23
2022-10-03T14:52:55.321Z,1.63
2022-10-03T14:55:29.851Z,1.40
2022-10-03T14:58:20.308Z,1.00
2022-10-03T15:00:55.563Z,1.50
2022-10-03T15:03:30.664Z,1.27
2022-10-03T15:06:19.459Z,1.20
2022-10-03T15:08:57.273Z,1.40
2022-10-03T15:11:35.334Z,1.27
2022-10-03T15:14:06.651Z,1.08
2022-10-03T15:16:40.462Z,1.35
2022-10-03T15:19:19.025Z,1.30
2022-10-03T15:21:48.939Z,1.27
2022-10-03T15:24:25.460Z,1.00
2022-10-03T15:29:30.752Z,1.02
2022-10-03T15:31:59.311Z,1.30
2022-10-03T15:34:39.987Z,0.77
2022-10-03T15:37:17.584Z,0.90
2022-10-03T15:39:48.191Z,0.60
2022-10-03T15:42:23.624Z,0.82
2022-10-03T15:45:06.846Z,1.00
2022-10-03T15:47:45.334Z,0.80
2022-10-03T15:50:34.214Z,0.50
2022-10-03T15:53:34.641Z,0.85
2022-10-03T15:56:09.532Z,0.93
2022-10-03T15:58:44.850Z,0.95
2022-10-03T16:01:21.025Z,1.10
2022-10-03T16:04:02.473Z,1.15
2022-10-03T16:06:51.605Z,1.63
2022-10-03T16:09:22.186Z,1.02
2022-10-03T16:12:05.047Z,1.00
2022-10-03T16:15:02.777Z,0.95
2022-10-03T16:18:01.479Z,0.93
2022-10-03T16:20:46.182Z,0.80
2022-10-03T16:23:24.816Z,0.85
2022-10-03T16:26:01.356Z,1.20
2022-10-03T16:28:36.546Z,0.95
2022-10-03T16:31:12.357Z,1.63
2022-10-03T16:33:58.037Z,0.68
2022-10-03T16:36:26.892Z,1.08
2022-10-03T16:39:00.712Z,0.85
2022-10-03T16:41:31.924Z,1.00
2022-10-03T16:44:05.520Z,0.75
2022-10-03T16:46:39.385Z,1.10
2022-10-03T16:49:50.119Z,1.27
2022-10-03T16:52:21.504Z,0.60
2022-10-03T16:54:57.838Z,0.80
2022-10-03T16:57:33.861Z,1.13
2022-10-03T17:00:08.038Z,1.00
2022-10-03T17:02:38.184Z,1.73
2022-10-03T17:05:13.426Z,1.30
2022-10-03T17:07:45.489Z,1.10
2022-10-03T17:10:35.382Z,0.80
2022-10-03T17:13:12.241Z,1.27
2022-10-03T17:18:23.305Z,1.00
2022-10-03T17:21:07.526Z,1.05
2022-10-03T17:23:48.417Z,0.88
2022-10-03T17:26:33.464Z,1.80
2022-10-03T17:29:18.699Z,2.00
2022-10-03T17:32:03.566Z,1.90
2022-10-03T17:35:06.928Z,1.75
2022-10-03T17:38:37.211Z,2.45
2022-10-03T17:41:21.282Z,2.17
2022-10-03T17:44:19.756Z,3.22
2022-10-03T17:47:00.242Z,3.45
2022-10-03T17:49:29.014Z,4.53
2022-10-03T17:51:58.031Z,4.10
2022-10-03T17:54:39.305Z,3.80
2022-10-03T17:57:14.224Z,3.17
2022-10-03T17:59:57.199Z,2.63
2022-10-03T18:02:38.369Z,1.80
2022-10-03T18:05:22.506Z,1.50
2022-10-03T18:07:54.557Z,1.30
2022-10-03T18:10:27.545Z,1.67
2022-10-03T18:13:00.508Z,3.53
2022-10-03T18:15:47.383Z,4.05
2022-10-03T18:18:29.834Z,5.07
2022-10-03T18:21:11.686Z,7.35
2022-10-03T18:23:55.617Z,7.75
2022-10-03T18:26:32.400Z,6.75
2022-10-03T18:29:18.971Z,4.55
2022-10-03T18:31:53.827Z,3.75
2022-10-03T18:34:36.119Z,3.42
2022-10-03T18:37:33.192Z,3.15
2022-10-03T18:40:02.920Z,3.10
2022-10-03T18:42:31.302Z,3.85
2022-10-03T18:45:01.722Z,3.80
2022-10-03T18:47:40.523Z,7.60
2022-10-03T18:50:14.174Z,8.85
2022-10-03T18:52:55.401Z,6.35
2022-10-03T18:55:47.020Z,5.65
2022-10-03T18:58:46.474Z,5.63
2022-10-03T19:01:30.854Z,4.70
2022-10-03T19:04:04.995Z,4.72
2022-10-03T19:06:44.739Z,4.88
2022-10-03T19:09:23.327Z,4.60
2022-10-03T19:12:03.290Z,5.32
2022-10-03T19:15:19.315Z,5.07
2022-10-03T19:18:11.088Z,4.45
2022-10-03T19:20:43.738Z,4.32
2022-10-03T19:23:26.434Z,3.97
2022-10-03T19:25:57.675Z,3.13
2022-10-03T19:28:37.627Z,3.03
2022-10-03T19:31:21.380Z,5.28
2022-10-03T19:34:14.755Z,5.15
2022-10-03T19:36:42.768Z,4.90
2022-10-03T19:39:16.735Z,4.80
2022-10-03T19:42:00.549Z,4.85
2022-10-03T19:44:29.050Z,5.38
2022-10-03T19:47:01.461Z,4.07
2022-10-03T19:49:33.512Z,2.70
2022-10-03T19:52:14.402Z,2.38
2022-10-03T19:55:00.904Z,2.80
2022-10-03T19:57:34.268Z,4.37
2022-10-03T20:00:07.037Z,5.28
2022-10-03T20:02:39.849Z,4.97
2022-10-03T20:05:35.125Z,4.82
2022-10-03T20:08:30.704Z,5.68
2022-10-03T20:11:13.348Z,6.88
2022-10-03T20:13:48.204Z,5.55
2022-10-03T20:16:25.250Z,4.97
2022-10-03T20:18:57.027Z,4.38
2022-10-03T20:21:28.880Z,4.03
2022-10-03T20:23:58.261Z,3.30
2022-10-03T20:26:50.026Z,3.90
2022-10-03T20:29:25.223Z,2.80
2022-10-03T20:32:02.684Z,3.13
2022-10-03T20:34:34.325Z,2.80
2022-10-03T20:37:43.926Z,2.42
2022-10-03T20:40:35.212Z,2.60
2022-10-03T20:43:42.659Z,2.83
2022-10-03T20:46:28.547Z,3.73
2022-10-03T20:49:10.671Z,3.50
2022-10-03T20:52:00.198Z,4.00
2022-10-03T20:54:36.988Z,4.00
2022-10-03T20:57:04.873Z,3.40
2022-10-03T20:59:34.139Z,3.38
2022-10-03T21:02:07.411Z,3.47
2022-10-03T21:05:01.406Z,3.70
2022-10-03T21:07:52.373Z,3.70
2022-10-03T21:10:36.918Z,4.13
2022-10-03T21:13:15.472Z,4.32
2022-10-03T21:16:00.220Z,3.97
2022-10-03T21:18:40.229Z,4.18
2022-10-03T21:21:15.396Z,3.00
2022-10-03T21:24:11.213Z,2.65
2022-10-03T21:26:45.258Z,1.98
2022-10-03T21:29:36.417Z,1.80
2022-10-03T21:32:41.627Z,1.60
2022-10-03T21:35:29.738Z,1.20
2022-10-03T21:38:20.260Z,1.48
2022-10-03T21:41:04.699Z,1.50
2022-10-03T21:43:49.174Z,1.90
2022-10-03T21:46:40.651Z,1.52
2022-10-03T21:49:20.393Z,1.48
2022-10-03T21:51:48.312Z,1.63
2022-10-03T21:54:36.356Z,2.15
2022-10-03T21:57:06.898Z,2.35
2022-10-03T22:00:11.650Z,2.17
2022-10-03T22:03:19.321Z,4.25
2022-10-03T22:05:58.811Z,5.00
2022-10-03T22:08:32.134Z,5.10
2022-10-03T22:11:22.587Z,4.85
2022-10-03T22:13:59.426Z,3.95
2022-10-03T22:19:09.742Z,2.55
2022-10-03T22:21:47.668Z,2.70
2022-10-03T22:24:41.743Z,2.63
2022-10-03T22:27:18.581Z,2.30
2022-10-03T22:33:08.104Z,2.30
2022-10-03T22:35:59.782Z,2.20
2022-10-03T22:38:32.036Z,2.15
2022-10-03T22:41:05.023Z,2.33
2022-10-03T22:43:37.407Z,2.08
2022-10-03T22:46:07.338Z,2.20
2022-10-03T22:48:43.377Z,1.55
2022-10-03T22:51:13.969Z,1.80
2022-10-03T22:53:54.256Z,1.95
2022-10-03T22:56:39.382Z,1.90
2022-10-03T22:59:16.710Z,2.00
2022-10-03T23:01:47.523Z,1.80
2022-10-03T23:04:28.760Z,1.58
2022-10-03T23:07:24.445Z,1.75
2022-10-03T23:10:30.651Z,1.50
2022-10-03T23:13:21.675Z,1.10
2022-10-03T23:15:55.976Z,1.10
2022-10-03T23:18:39.126Z,2.72
2022-10-03T23:21:11.602Z,2.75
2022-10-03T23:24:12.058Z,2.35
2022-10-03T23:27:13.821Z,1.85
2022-10-03T23:29:41.635Z,1.45
2022-10-03T23:32:10.624Z,1.55
2022-10-03T23:34:38.114Z,1.45
2022-10-03T23:37:11.904Z,1.05
2022-10-03T23:39:41.522Z,1.10
2022-10-03T23:42:10.634Z,0.85
2022-10-03T23:44:56.317Z,1.00
2022-10-03T23:47:28.016Z,0.80
2022-10-03T23:49:56.941Z,1.20
2022-10-03T23:52:28.054Z,1.20
2022-10-03T23:55:00.566Z,1.35
2022-10-03T23:57:36.239Z,1.60
